createdAt,value
2017-11-16T00:01:52.014Z,10.76
2017-11-16T00:04:19.186Z,10.81
2017-11-16T00:06:45.630Z,10.81
2017-11-16T00:09:12.065Z,10.86
2017-11-16T00:11:38.499Z,10.88
2017-11-16T00:14:04.837Z,10.87
2017-11-16T00:16:31.266Z,10.83
2017-11-16T00:18:57.708Z,10.80
2017-11-16T00:21:24.847Z,10.79
2017-11-16T00:23:51.267Z,10.76
2017-11-16T00:26:17.721Z,10.73
2017-11-16T00:28:44.128Z,10.73
2017-11-16T00:31:10.599Z,10.75
2017-11-16T00:33:37.027Z,10.76
2017-11-16T00:36:03.428Z,10.74
2017-11-16T00:38:30.817Z,10.76
2017-11-16T00:40:57.355Z,10.76
2017-11-16T00:43:23.789Z,10.78
2017-11-16T00:45:50.160Z,10.79
2017-11-16T00:48:16.672Z,10.78
2017-11-16T00:50:43.092Z,10.76
2017-11-16T00:53:09.533Z,10.74
2017-11-16T00:55:36.680Z,10.77
2017-11-16T00:58:03.122Z,10.81
2017-11-16T01:00:29.558Z,10.79
2017-11-16T01:02:55.983Z,10.75
2017-11-16T01:05:22.420Z,10.69
2017-11-16T01:07:48.856Z,10.68
2017-11-16T01:10:15.406Z,10.75
2017-11-16T01:12:42.450Z,10.76
2017-11-16T01:15:08.884Z,10.73
2017-11-16T01:17:35.520Z,10.76
2017-11-16T01:20:01.957Z,10.84
2017-11-16T01:22:28.382Z,10.91
2017-11-16T01:24:54.818Z,10.94
2017-11-16T01:27:21.253Z,10.95
2017-11-16T01:29:48.404Z,10.96
2017-11-16T01:32:14.847Z,10.96
2017-11-16T01:34:41.281Z,10.90
2017-11-16T01:37:07.716Z,10.92
2017-11-16T01:39:34.145Z,10.89
2017-11-16T01:42:00.577Z,10.89
2017-11-16T01:44:27.012Z,10.88
2017-11-16T01:46:54.266Z,10.87
2017-11-16T01:49:20.709Z,10.88
2017-11-16T01:51:47.134Z,10.86
2017-11-16T01:54:13.572Z,10.84
2017-11-16T01:56:40.005Z,10.91
2017-11-16T01:59:06.447Z,10.88
2017-11-16T02:01:32.875Z,10.89
2017-11-16T02:04:00.035Z,10.90
2017-11-16T02:06:26.461Z,10.90
2017-11-16T02:08:52.794Z,10.92
2017-11-16T02:11:19.164Z,10.96
2017-11-16T02:13:45.560Z,10.97
2017-11-16T02:16:11.994Z,10.98
2017-11-16T02:18:38.432Z,10.96
2017-11-16T02:21:05.480Z,10.95
2017-11-16T02:23:31.922Z,10.94
2017-11-16T02:25:58.348Z,10.96
2017-11-16T02:28:24.790Z,10.93
2017-11-16T02:30:51.233Z,10.95
2017-11-16T02:33:17.651Z,10.92
2017-11-16T02:35:44.087Z,10.90
2017-11-16T02:38:11.240Z,10.88
2017-11-16T02:40:37.673Z,10.78
2017-11-16T02:43:04.112Z,10.74
2017-11-16T02:45:30.520Z,10.74
2017-11-16T02:47:56.970Z,10.74
2017-11-16T02:50:23.412Z,10.79
2017-11-16T02:52:49.848Z,10.82
2017-11-16T02:55:17.104Z,10.84
2017-11-16T02:57:43.646Z,10.85
2017-11-16T03:00:10.075Z,10.86
2017-11-16T03:02:36.514Z,10.83
2017-11-16T03:05:02.943Z,10.85
2017-11-16T03:07:29.377Z,10.85
2017-11-16T03:09:55.813Z,10.84
2017-11-16T03:12:23.068Z,10.86
2017-11-16T03:14:49.602Z,10.84
2017-11-16T03:17:16.036Z,10.83
2017-11-16T03:19:42.478Z,10.85
2017-11-16T03:22:08.810Z,10.87
2017-11-16T03:24:35.341Z,10.85
2017-11-16T03:27:01.784Z,10.86
2017-11-16T03:29:29.029Z,10.89
2017-11-16T03:31:55.565Z,10.88
2017-11-16T03:34:22.000Z,10.86
2017-11-16T03:36:48.436Z,10.85
2017-11-16T03:39:14.766Z,10.79
2017-11-16T03:41:41.203Z,10.77
2017-11-16T03:44:07.639Z,10.79
2017-11-16T03:46:34.789Z,10.79
2017-11-16T03:49:01.224Z,10.78
2017-11-16T03:51:27.662Z,10.83
2017-11-16T03:53:54.103Z,10.82
2017-11-16T03:56:20.536Z,10.80
2017-11-16T03:58:46.938Z,10.79
2017-11-16T04:01:13.380Z,10.80
2017-11-16T04:03:40.557Z,10.82
2017-11-16T04:06:06.993Z,10.83
2017-11-16T04:08:33.417Z,10.88
2017-11-16T04:10:59.862Z,10.89
2017-11-16T04:13:26.287Z,10.87
2017-11-16T04:15:52.723Z,10.86
2017-11-16T04:18:19.158Z,10.84
2017-11-16T04:20:46.317Z,10.86
2017-11-16T04:23:12.751Z,10.86
2017-11-16T04:25:39.178Z,10.86
2017-11-16T04:28:05.624Z,10.88
2017-11-16T04:30:32.054Z,10.89
2017-11-16T04:32:58.487Z,10.88
2017-11-16T04:35:24.814Z,10.85
2017-11-16T04:37:52.078Z,10.86
2017-11-16T04:40:18.438Z,10.88
2017-11-16T04:42:44.797Z,10.88
2017-11-16T04:45:11.172Z,10.87
2017-11-16T04:47:37.601Z,10.85
2017-11-16T04:50:04.038Z,10.85
2017-11-16T04:52:30.478Z,10.86
2017-11-16T04:54:57.728Z,10.87
2017-11-16T04:57:24.138Z,10.83
2017-11-16T04:59:50.573Z,10.83
2017-11-16T05:02:17.032Z,10.87
2017-11-16T05:04:43.465Z,10.85
2017-11-16T05:07:09.900Z,10.71
2017-11-16T05:09:36.342Z,10.64
2017-11-16T05:12:03.456Z,10.67
2017-11-16T05:14:29.899Z,10.66
2017-11-16T05:16:56.355Z,10.68
2017-11-16T05:19:22.789Z,10.71
2017-11-16T05:21:49.224Z,10.72
2017-11-16T05:24:15.659Z,10.69
2017-11-16T05:26:42.139Z,10.75
2017-11-16T05:29:09.347Z,10.76
2017-11-16T05:31:35.784Z,10.81
2017-11-16T05:34:02.217Z,10.84
2017-11-16T05:36:28.863Z,10.90
2017-11-16T05:38:55.291Z,10.89
2017-11-16T05:41:21.726Z,10.90
2017-11-16T05:43:48.129Z,10.93
2017-11-16T05:46:15.313Z,10.97
2017-11-16T05:48:41.747Z,11.01
2017-11-16T05:51:08.119Z,11.01
2017-11-16T05:53:34.520Z,11.02
2017-11-16T05:56:00.949Z,10.90
2017-11-16T05:58:27.987Z,10.88
2017-11-16T06:00:54.438Z,10.99
2017-11-16T06:03:20.875Z,11.07
2017-11-16T06:05:47.766Z,11.06
2017-11-16T06:08:14.258Z,11.14
2017-11-16T06:10:40.691Z,11.16
2017-11-16T06:13:07.113Z,11.22
2017-11-16T06:15:33.561Z,11.23
2017-11-16T06:18:00.090Z,11.26
2017-11-16T06:20:26.626Z,11.27
2017-11-16T06:22:53.165Z,11.27
2017-11-16T06:25:19.599Z,11.30
2017-11-16T06:27:46.036Z,11.32
2017-11-16T06:30:12.467Z,11.36
2017-11-16T06:32:38.903Z,11.41
2017-11-16T06:35:05.338Z,11.41
2017-11-16T06:37:31.788Z,11.48
2017-11-16T06:39:58.207Z,11.52
2017-11-16T06:42:24.641Z,11.60
2017-11-16T06:44:51.076Z,11.65
2017-11-16T06:47:17.855Z,11.69
2017-11-16T06:49:44.364Z,11.72
2017-11-16T06:52:10.790Z,11.76
2017-11-16T06:54:37.225Z,11.79
2017-11-16T06:57:04.071Z,11.73
2017-11-16T06:59:30.548Z,11.72
2017-11-16T07:01:57.043Z,11.71
2017-11-16T07:04:23.476Z,11.75
2017-11-16T07:06:50.014Z,11.82
2017-11-16T07:09:17.164Z,11.94
2017-11-16T07:11:43.837Z,12.10
2017-11-16T07:14:10.340Z,12.18
2017-11-16T07:16:36.981Z,12.21
2017-11-16T07:19:03.416Z,12.12
2017-11-16T07:21:29.850Z,12.17
2017-11-16T07:23:56.389Z,12.23
2017-11-16T07:26:22.822Z,12.30
2017-11-16T07:28:49.563Z,12.28
2017-11-16T07:31:16.510Z,12.30
2017-11-16T07:33:43.048Z,12.24
2017-11-16T07:36:09.485Z,12.42
2017-11-16T07:38:35.917Z,12.47
2017-11-16T07:41:02.592Z,12.61
2017-11-16T07:43:29.410Z,12.77
2017-11-16T07:45:56.190Z,12.84
2017-11-16T07:48:22.682Z,12.91
2017-11-16T07:50:49.422Z,12.97
2017-11-16T07:53:16.071Z,13.02
2017-11-16T07:55:42.496Z,13.15
2017-11-16T07:58:08.828Z,13.07
2017-11-16T08:00:35.263Z,13.10
2017-11-16T08:03:02.517Z,13.17
2017-11-16T08:05:29.403Z,13.28
2017-11-16T08:07:56.309Z,13.36
2017-11-16T08:10:22.845Z,13.43
2017-11-16T08:12:50.288Z,13.53
2017-11-16T08:15:17.091Z,13.65
2017-11-16T08:17:44.096Z,13.82
2017-11-16T08:20:10.530Z,13.84
2017-11-16T08:22:36.964Z,13.85
2017-11-16T08:25:03.399Z,13.78
2017-11-16T08:27:30.099Z,13.87
2017-11-16T08:29:56.472Z,14.05
2017-11-16T08:32:23.003Z,14.19
2017-11-16T08:34:49.963Z,14.32
2017-11-16T08:37:16.391Z,14.43
2017-11-16T08:39:42.827Z,14.58
2017-11-16T08:42:09.465Z,14.63
2017-11-16T08:44:36.005Z,14.66
2017-11-16T08:47:02.378Z,14.73
2017-11-16T08:49:29.079Z,14.71
2017-11-16T08:51:55.492Z,14.70
2017-11-16T08:54:21.935Z,14.59
2017-11-16T08:56:48.692Z,14.67
2017-11-16T08:59:15.224Z,14.80
2017-11-16T09:01:41.664Z,14.81
2017-11-16T09:04:08.608Z,14.77
2017-11-16T09:06:35.351Z,14.77
2017-11-16T09:09:01.787Z,14.69
2017-11-16T09:11:28.628Z,14.78
2017-11-16T09:13:55.471Z,14.89
2017-11-16T09:16:21.907Z,14.98
2017-11-16T09:18:48.546Z,15.14
2017-11-16T09:21:15.186Z,15.16
2017-11-16T09:23:41.830Z,15.01
2017-11-16T09:26:08.780Z,14.89
2017-11-16T09:28:35.206Z,14.68
2017-11-16T09:31:02.022Z,14.83
2017-11-16T09:33:28.486Z,15.04
2017-11-16T09:35:54.920Z,15.19
2017-11-16T09:38:21.355Z,15.20
2017-11-16T09:40:47.898Z,15.32
2017-11-16T09:43:14.441Z,15.44
2017-11-16T09:45:40.871Z,15.55
2017-11-16T09:48:07.824Z,15.59
2017-11-16T09:50:34.245Z,15.65
2017-11-16T09:53:00.896Z,15.72
2017-11-16T09:55:27.496Z,15.66
2017-11-16T09:57:53.940Z,15.63
2017-11-16T10:00:20.356Z,15.61
2017-11-16T10:02:47.237Z,15.54
2017-11-16T10:05:13.788Z,15.46
2017-11-16T10:07:40.322Z,15.36
2017-11-16T10:10:07.055Z,15.41
2017-11-16T10:12:33.607Z,15.54
2017-11-16T10:15:00.030Z,15.63
2017-11-16T10:17:26.973Z,15.70
2017-11-16T10:19:53.510Z,15.68
2017-11-16T10:22:20.363Z,15.75
2017-11-16T10:24:47.301Z,15.90
2017-11-16T10:27:13.744Z,15.96
2017-11-16T10:29:40.107Z,15.92
2017-11-16T10:32:07.015Z,16.01
2017-11-16T10:34:33.455Z,16.15
2017-11-16T10:36:59.884Z,16.14
2017-11-16T10:39:27.036Z,16.30
2017-11-16T10:41:53.478Z,16.44
2017-11-16T10:44:20.057Z,16.68
2017-11-16T10:46:46.860Z,16.79
2017-11-16T10:49:13.224Z,17.01
2017-11-16T10:51:40.438Z,17.08
2017-11-16T10:54:06.983Z,17.03
2017-11-16T10:56:33.521Z,17.05
2017-11-16T10:59:00.066Z,17.04
2017-11-16T11:01:26.497Z,16.93
2017-11-16T11:17:31.864Z,16.47
2017-11-16T11:19:58.240Z,16.69
2017-11-16T11:22:24.633Z,16.96
2017-11-16T11:29:54.180Z,16.98
2017-11-16T11:32:21.129Z,16.98
2017-11-16T11:34:47.556Z,17.13
2017-11-16T11:37:14.101Z,17.22
2017-11-16T11:39:41.152Z,17.23
2017-11-16T11:42:07.505Z,17.14
2017-11-16T11:44:33.991Z,17.05
2017-11-16T11:47:00.839Z,16.73
2017-11-16T11:49:27.261Z,16.47
2017-11-16T11:51:53.724Z,16.29
2017-11-16T11:54:20.235Z,16.27
2017-11-16T11:56:46.698Z,16.33
2017-11-16T11:59:13.261Z,16.14
2017-11-16T12:01:39.668Z,16.07
2017-11-16T12:04:06.104Z,16.02
2017-11-16T12:06:32.648Z,15.95
2017-11-16T12:08:59.177Z,16.08
2017-11-16T12:11:25.509Z,16.20
2017-11-16T12:13:52.149Z,16.15
2017-11-16T12:16:18.576Z,16.10
2017-11-16T12:18:45.120Z,16.02
2017-11-16T12:21:11.565Z,15.91
2017-11-16T12:23:38.262Z,15.76
2017-11-16T12:26:04.739Z,15.55
2017-11-16T12:41:08.242Z,15.14
2017-11-16T12:43:34.699Z,15.02
2017-11-16T12:46:01.124Z,15.02
2017-11-16T12:48:28.023Z,15.22
2017-11-16T12:50:54.388Z,15.23
2017-11-16T12:53:20.839Z,15.15
2017-11-16T12:55:47.682Z,15.32
2017-11-16T12:58:14.616Z,15.38
2017-11-16T13:00:41.370Z,15.28
2017-11-16T13:03:08.154Z,15.29
2017-11-16T13:05:34.984Z,15.35
2017-11-16T13:08:01.620Z,15.46
2017-11-16T13:10:28.549Z,15.40
2017-11-16T13:20:30.111Z,15.00
2017-11-16T13:22:56.588Z,14.99
2017-11-16T13:25:22.976Z,14.96
2017-11-16T13:27:49.413Z,14.84
2017-11-16T13:30:15.996Z,14.66
2017-11-16T13:32:42.389Z,14.87
2017-11-16T13:35:09.924Z,14.92
2017-11-16T13:37:36.376Z,14.85
2017-11-16T13:40:02.965Z,14.78
2017-11-16T13:42:29.398Z,14.56
2017-11-16T13:44:55.840Z,14.35
2017-11-16T13:47:22.479Z,14.29
2017-11-16T13:49:49.372Z,14.24
2017-11-16T13:52:15.853Z,13.89
2017-11-16T13:54:42.240Z,13.73
2017-11-16T13:57:08.732Z,13.55
2017-11-16T13:59:35.260Z,13.31
2017-11-16T14:02:01.696Z,13.22
2017-11-16T14:04:28.143Z,13.19
2017-11-16T14:06:54.516Z,13.33
2017-11-16T14:09:20.950Z,13.28
2017-11-16T14:11:47.845Z,13.08
2017-11-16T14:14:14.299Z,13.02
2017-11-16T14:16:41.032Z,13.07
2017-11-16T14:19:07.969Z,13.16
2017-11-16T14:21:34.403Z,13.07
2017-11-16T14:24:00.939Z,12.98
2017-11-16T14:26:27.782Z,12.86
2017-11-16T14:28:54.318Z,12.68
2017-11-16T14:31:20.793Z,12.61
2017-11-16T14:33:47.294Z,12.50
2017-11-16T14:36:13.729Z,12.56
2017-11-16T14:38:40.470Z,12.55
2017-11-16T14:41:06.905Z,12.63
2017-11-16T14:43:33.441Z,12.60
2017-11-16T14:46:00.490Z,12.54
2017-11-16T14:48:27.456Z,12.44
2017-11-16T14:50:53.950Z,12.40
2017-11-16T14:53:20.612Z,12.42
2017-11-16T14:55:47.103Z,12.31
2017-11-16T14:58:13.735Z,12.31
2017-11-16T15:05:43.658Z,12.21
2017-11-16T15:08:10.499Z,11.97
2017-11-16T15:10:37.422Z,12.04
2017-11-16T15:13:04.165Z,12.02
2017-11-16T15:15:30.807Z,11.95
2017-11-16T15:17:57.199Z,11.92
2017-11-16T15:20:24.034Z,11.98
2017-11-16T15:22:50.524Z,12.06
2017-11-16T15:25:17.164Z,11.93
2017-11-16T15:27:44.103Z,11.90
2017-11-16T15:30:10.644Z,11.83
2017-11-16T15:42:42.353Z,11.62
2017-11-16T15:45:08.885Z,11.54
2017-11-16T15:47:35.430Z,11.44
2017-11-16T15:50:02.328Z,11.40
2017-11-16T15:52:28.805Z,11.42
2017-11-16T15:54:55.342Z,11.27
2017-11-16T15:57:21.781Z,11.35
2017-11-16T15:59:48.303Z,11.41
2017-11-16T16:02:14.749Z,11.37
2017-11-16T16:04:41.206Z,11.20
2017-11-16T16:07:07.629Z,11.17
2017-11-16T16:09:34.052Z,11.31
2017-11-16T16:12:00.588Z,11.30
2017-11-16T16:14:27.026Z,11.30
2017-11-16T16:16:53.464Z,11.34
2017-11-16T16:19:19.895Z,11.16
2017-11-16T16:21:46.332Z,11.24
2017-11-16T16:24:12.769Z,11.29
2017-11-16T16:26:39.142Z,11.24
2017-11-16T16:29:05.610Z,11.28
2017-11-16T16:31:32.066Z,11.31
2017-11-16T16:33:58.455Z,11.37
2017-11-16T16:36:24.936Z,11.31
2017-11-16T16:38:51.371Z,11.37
2017-11-16T16:41:17.908Z,11.28
2017-11-16T16:43:44.343Z,11.32
2017-11-16T16:46:11.089Z,11.30
2017-11-16T16:48:37.826Z,11.43
2017-11-16T16:51:04.616Z,11.36
2017-11-16T16:53:31.517Z,11.44
2017-11-16T16:55:58.565Z,11.43
2017-11-16T16:58:25.510Z,11.45
2017-11-16T17:00:52.355Z,11.44
2017-11-16T17:03:18.958Z,11.51
2017-11-16T17:05:45.429Z,11.56
2017-11-16T17:08:11.864Z,11.41
2017-11-16T17:10:38.307Z,11.46
2017-11-16T17:13:04.836Z,11.54
2017-11-16T17:15:32.191Z,11.54
2017-11-16T17:17:58.812Z,11.56
2017-11-16T17:20:25.368Z,11.57
2017-11-16T17:22:52.268Z,11.42
2017-11-16T17:25:19.159Z,11.43
2017-11-16T17:27:46.105Z,11.47
2017-11-16T17:30:12.949Z,11.45
2017-11-16T17:32:40.464Z,11.47
2017-11-16T17:35:07.354Z,11.52
2017-11-16T17:37:34.218Z,11.51
2017-11-16T17:40:01.045Z,11.39
2017-11-16T17:42:28.156Z,11.52
2017-11-16T17:44:54.989Z,11.49
2017-11-16T17:47:22.049Z,11.46
2017-11-16T17:49:49.030Z,11.49
2017-11-16T17:52:15.936Z,11.55
2017-11-16T17:54:42.991Z,11.56
2017-11-16T17:57:09.875Z,11.56
2017-11-16T17:59:36.984Z,11.60
2017-11-16T18:02:03.699Z,11.56
2017-11-16T18:04:30.574Z,11.56
2017-11-16T18:06:57.726Z,11.56
2017-11-16T18:09:24.712Z,11.58
2017-11-16T18:11:51.819Z,11.54
2017-11-16T18:14:18.810Z,11.51
2017-11-16T18:16:45.864Z,11.48
2017-11-16T18:19:12.805Z,11.53
2017-11-16T18:21:39.727Z,11.52
2017-11-16T18:24:07.211Z,11.52
2017-11-16T18:26:34.160Z,11.49
2017-11-16T18:29:01.104Z,11.53
2017-11-16T18:31:28.156Z,11.55
2017-11-16T18:33:55.155Z,11.37
2017-11-16T18:36:22.219Z,11.45
2017-11-16T18:38:49.301Z,11.44
2017-11-16T18:41:16.411Z,11.44
2017-11-16T18:43:43.463Z,11.45
2017-11-16T18:46:10.550Z,11.49
2017-11-16T18:48:37.721Z,11.45
2017-11-16T18:51:04.757Z,11.47
2017-11-16T18:53:31.801Z,11.42
2017-11-16T18:55:58.935Z,11.41
2017-11-16T18:58:25.899Z,11.42
2017-11-16T19:00:52.948Z,11.44
2017-11-16T19:03:20.109Z,11.42
2017-11-16T19:05:47.046Z,11.38
2017-11-16T19:08:13.992Z,11.39
2017-11-16T19:10:40.940Z,11.41
2017-11-16T19:13:07.988Z,11.38
2017-11-16T19:15:35.041Z,11.35
2017-11-16T19:18:02.189Z,11.30
2017-11-16T19:20:29.240Z,11.33
2017-11-16T19:22:56.289Z,11.34
2017-11-16T19:25:23.438Z,11.37
2017-11-16T19:27:50.334Z,11.31
2017-11-16T19:30:17.230Z,11.35
2017-11-16T19:32:44.437Z,11.32
2017-11-16T19:35:11.431Z,11.34
2017-11-16T19:37:38.334Z,11.36
2017-11-16T19:40:05.426Z,11.36
2017-11-16T19:42:32.373Z,11.36
2017-11-16T19:44:59.524Z,11.33
2017-11-16T19:47:26.521Z,11.30
2017-11-16T19:49:53.418Z,11.29
2017-11-16T19:52:20.455Z,11.27
2017-11-16T19:54:47.311Z,11.28
2017-11-16T19:57:14.417Z,11.27
2017-11-16T19:59:41.513Z,11.29
2017-11-16T20:02:08.458Z,11.27
2017-11-16T20:04:35.405Z,11.28
2017-11-16T20:07:02.528Z,11.29
2017-11-16T20:09:29.352Z,11.25
2017-11-16T20:11:56.244Z,11.28
2017-11-16T20:14:23.251Z,11.29
2017-11-16T20:16:50.298Z,11.30
2017-11-16T20:19:17.246Z,11.29
2017-11-16T20:21:44.361Z,11.31
2017-11-16T20:24:11.285Z,11.17
2017-11-16T20:26:38.357Z,11.31
2017-11-16T20:29:05.285Z,11.31
2017-11-16T20:31:32.126Z,11.31
2017-11-16T20:33:58.969Z,11.23
2017-11-16T20:36:26.121Z,11.29
2017-11-16T20:38:53.027Z,11.30
2017-11-16T20:41:20.066Z,11.29
2017-11-16T20:43:47.026Z,11.27
2017-11-16T20:46:14.132Z,11.23
2017-11-16T20:48:41.266Z,11.21
2017-11-16T20:51:08.169Z,11.20
2017-11-16T20:53:35.261Z,11.23
2017-11-16T20:56:02.208Z,11.08
2017-11-16T20:58:29.256Z,11.18
2017-11-16T21:00:56.103Z,11.18
2017-11-16T21:03:22.948Z,11.15
2017-11-16T21:05:49.517Z,11.21
2017-11-16T21:08:15.919Z,11.14
2017-11-16T21:10:42.324Z,11.13
2017-11-16T21:13:08.788Z,11.14
2017-11-16T21:15:35.323Z,11.16
2017-11-16T21:18:01.861Z,11.15
2017-11-16T21:20:28.253Z,11.17
2017-11-16T21:22:54.730Z,11.13
2017-11-16T21:25:21.164Z,11.13
2017-11-16T21:27:47.600Z,11.10
2017-11-16T21:30:14.034Z,10.99
2017-11-16T21:32:40.466Z,11.09
2017-11-16T21:35:06.904Z,11.10
2017-11-16T21:37:33.361Z,11.08
2017-11-16T21:39:59.859Z,10.93
2017-11-16T21:42:26.275Z,11.11
2017-11-16T21:44:53.056Z,11.08
2017-11-16T21:47:19.541Z,11.12
2017-11-16T21:49:46.844Z,11.10
2017-11-16T21:52:13.431Z,11.08
2017-11-16T21:54:39.920Z,11.08
2017-11-16T21:57:06.353Z,11.10
2017-11-16T21:59:32.788Z,11.09
2017-11-16T22:01:59.225Z,11.09
2017-11-16T22:04:25.610Z,11.10
2017-11-16T22:06:52.824Z,11.12
2017-11-16T22:09:19.242Z,11.06
2017-11-16T22:11:45.678Z,11.02
2017-11-16T22:14:12.114Z,11.00
2017-11-16T22:16:38.658Z,10.92
2017-11-16T22:19:05.084Z,10.84
2017-11-16T22:21:31.507Z,10.75
2017-11-16T22:23:58.669Z,10.76
2017-11-16T22:26:25.076Z,10.67
2017-11-16T22:28:51.548Z,10.51
2017-11-16T22:31:17.906Z,10.72
2017-11-16T22:33:44.411Z,10.81
2017-11-16T22:36:10.853Z,10.79
2017-11-16T22:38:37.220Z,10.73
2017-11-16T22:41:04.300Z,10.77
2017-11-16T22:43:30.733Z,10.79
2017-11-16T22:45:57.196Z,10.68
2017-11-16T22:48:23.632Z,10.75
2017-11-16T22:50:50.076Z,10.80
2017-11-16T22:53:16.611Z,10.79
2017-11-16T22:55:43.048Z,10.76
2017-11-16T22:58:10.146Z,10.71
2017-11-16T23:00:36.604Z,10.62
2017-11-16T23:03:03.060Z,10.59
2017-11-16T23:05:29.493Z,10.55
2017-11-16T23:07:55.937Z,10.47
2017-11-16T23:10:22.362Z,10.44
2017-11-16T23:12:48.806Z,10.38
2017-11-16T23:15:15.958Z,10.47
2017-11-16T23:17:42.384Z,10.54
2017-11-16T23:20:08.819Z,10.55
2017-11-16T23:22:35.284Z,10.54
2017-11-16T23:25:01.697Z,10.54
2017-11-16T23:27:28.122Z,10.57
2017-11-16T23:29:54.762Z,10.48
2017-11-16T23:32:21.643Z,10.49
2017-11-16T23:34:48.043Z,10.49
2017-11-16T23:37:14.477Z,10.44
2017-11-16T23:39:40.940Z,10.49
2017-11-16T23:42:07.348Z,10.57
2017-11-16T23:44:33.799Z,10.59
2017-11-16T23:47:00.155Z,10.66
2017-11-16T23:49:27.478Z,10.54
2017-11-16T23:51:54.015Z,10.51
2017-11-16T23:54:20.449Z,10.50
2017-11-16T23:56:46.811Z,10.55
2017-11-16T23:59:13.132Z,10.58
